Time;durP1;ratioP1;P1;durP2;ratioP2;P2;SDS_P1;SDS_P2;PMS_P1;PMS_P2;Temp;Humidity;BMP_temperature;BMP_pressure;BME280_temperature;BME280_humidity;BME280_pressure;Samples;Min_cycle;Max_cycle;Signal;HPM_P1;HPM_P2
2024/03/16 00:01:31;;;;;;;40.70;4.80;;;;;;;14.70;76.55;101035.19;4967507;28;20053;-44
2024/03/16 00:03:57;;;;;;;33.65;4.55;;;;;;;14.45;77.80;101031.69;4968352;28;20066;-44
2024/03/16 00:06:22;;;;;;;41.97;5.00;;;;;;;14.96;75.78;101033.38;4967935;28;20672;-46
2024/03/16 00:08:47;;;;;;;37.58;4.97;;;;;;;14.74;77.07;101047.44;4967393;28;20050;-44
2024/03/16 00:11:13;;;;;;;37.22;4.50;;;;;;;14.64;77.42;101051.78;4967128;28;20049;-45
2024/03/16 00:13:38;;;;;;;38.63;5.80;;;;;;;14.36;78.69;101055.25;4966362;28;20614;-47
2024/03/16 00:16:04;;;;;;;40.10;5.78;;;;;;;14.38;77.94;101061.41;4967530;28;20524;-45
2024/03/16 00:18:29;;;;;;;38.88;6.30;;;;;;;14.42;77.48;101063.16;4968764;28;20050;-50
2024/03/16 00:20:55;;;;;;;33.53;5.43;;;;;;;14.46;77.07;101062.28;4968057;28;20113;-46
2024/03/16 00:23:20;;;;;;;32.72;5.00;;;;;;;14.58;76.25;101078.03;4966955;28;20050;-47
2024/03/16 00:25:46;;;;;;;32.90;5.50;;;;;;;14.67;74.26;101087.66;4967174;28;20049;-49
2024/03/16 00:28:11;;;;;;;24.17;4.05;;;;;;;14.57;73.94;101092.94;4969862;28;20591;-46
2024/03/16 00:30:37;;;;;;;19.70;4.00;;;;;;;14.61;73.73;101104.28;4968268;28;20082;-46
2024/03/16 00:33:02;;;;;;;17.85;4.10;;;;;;;14.29;73.78;101105.94;4966433;28;20062;-49
2024/03/16 00:35:28;;;;;;;15.90;3.85;;;;;;;14.29;73.34;101106.81;4966789;28;20049;-45
2024/03/16 00:37:54;;;;;;;17.33;3.65;;;;;;;14.30;72.54;101123.44;4968314;28;20046;-44
2024/03/16 00:40:19;;;;;;;15.60;3.33;;;;;;;14.52;71.51;101120.00;4966646;28;20039;-51
2024/03/16 00:42:45;;;;;;;13.52;3.30;;;;;;;14.26;71.99;101122.56;4967549;28;20043;-47
2024/03/16 00:45:10;;;;;;;14.27;3.28;;;;;;;14.31;71.50;101122.56;4968039;28;20053;-49
2024/03/16 00:47:35;;;;;;;11.57;3.30;;;;;;;13.95;72.45;101129.47;4967422;28;20050;-45
2024/03/16 00:50:01;;;;;;;13.10;3.58;;;;;;;14.18;71.29;101137.41;4968108;28;20042;-46
2024/03/16 00:52:26;;;;;;;9.77;3.25;;;;;;;14.26;70.46;101138.31;4965551;28;20070;-49
2024/03/16 00:54:51;;;;;;;16.85;3.42;;;;;;;14.20;70.66;101139.16;4967811;28;20807;-44
2024/03/16 00:57:17;;;;;;;11.90;3.30;;;;;;;13.91;71.37;101148.66;4967277;28;20042;-46
2024/03/16 00:59:42;;;;;;;12.43;3.55;;;;;;;13.62;71.16;101152.88;4966716;28;20046;-46
2024/03/16 01:02:08;;;;;;;9.85;3.53;;;;;;;13.46;70.88;101156.28;4966338;28;20047;-47
2024/03/16 01:04:33;;;;;;;12.10;3.78;;;;;;;13.28;72.23;101165.78;4966721;28;20069;-49
2024/03/16 01:07:00;;;;;;;9.98;3.38;;;;;;;13.32;73.13;101177.16;4970792;28;20050;-50
2024/03/16 01:09:25;;;;;;;13.23;4.20;;;;;;;12.92;75.10;101192.53;4970883;28;20166;-47
2024/03/16 01:11:51;;;;;;;7.40;3.58;;;;;;;12.87;75.37;101186.34;4971216;28;20074;-47
2024/03/16 01:14:16;;;;;;;8.50;3.28;;;;;;;13.23;74.64;101191.06;4970784;28;20522;-46
2024/03/16 01:16:41;;;;;;;11.30;3.42;;;;;;;13.21;75.01;101190.16;4970273;28;20069;-47
2024/03/16 01:19:07;;;;;;;8.60;3.42;;;;;;;13.53;74.50;101186.91;4971253;28;20054;-46
2024/03/16 01:21:32;;;;;;;7.20;2.90;;;;;;;13.11;75.41;101196.16;4970895;28;20049;-47
2024/03/16 01:23:57;;;;;;;7.45;2.90;;;;;;;13.12;76.47;101197.03;4971682;28;20076;-45
2024/03/16 01:26:22;;;;;;;8.85;2.97;;;;;;;13.23;75.39;101205.91;4971651;28;20046;-46
2024/03/16 01:28:48;;;;;;;11.10;3.38;;;;;;;13.14;75.45;101208.41;4970922;28;20035;-47
2024/03/16 01:31:13;;;;;;;11.38;4.20;;;;;;;12.97;76.35;101208.25;4970326;28;20070;-49
2024/03/16 01:33:39;;;;;;;11.07;3.50;;;;;;;12.89;76.86;101223.88;4969800;28;20475;-45
2024/03/16 01:36:05;;;;;;;13.80;4.03;;;;;;;12.61;78.33;101224.47;4972804;28;20042;-49
2024/03/16 01:38:30;;;;;;;10.20;3.90;;;;;;;12.80;77.34;101222.94;4972473;28;20039;-47
2024/03/16 01:40:56;;;;;;;10.27;3.88;;;;;;;13.16;76.13;101227.66;4971363;28;20556;-46
2024/03/16 01:43:21;;;;;;;9.90;3.85;;;;;;;12.95;77.16;101229.16;4970437;28;20051;-45
2024/03/16 01:45:46;;;;;;;18.75;4.07;;;;;;;12.82;77.23;101232.53;4969350;28;20074;-47
2024/03/16 01:48:12;;;;;;;12.77;3.88;;;;;;;13.02;77.58;101225.75;4970832;28;20122;-47
2024/03/16 01:50:41;;;;;;;12.23;3.90;;;;;;;13.19;76.66;101228.53;4970389;28;20070;-46
2024/03/16 01:53:09;;;;;;;14.75;4.03;;;;;;;13.18;77.06;101233.75;4970226;28;20118;-47
2024/03/16 01:55:35;;;;;;;10.88;3.80;;;;;;;13.33;76.86;101242.63;4969782;28;20042;-46
2024/03/16 01:58:01;;;;;;;13.18;3.55;;;;;;;12.84;78.92;101254.38;4970818;28;20038;-46
2024/03/16 02:00:26;;;;;;;15.10;3.10;;;;;;;12.58;79.40;101264.53;4971126;28;20532;-49
2024/03/16 02:02:54;;;;;;;13.48;3.22;;;;;;;12.57;79.65;101269.75;4969678;28;20057;-45
2024/03/16 02:05:19;;;;;;;16.48;3.15;;;;;;;12.60;79.24;101270.69;4970764;28;20050;-46
2024/03/16 02:07:45;;;;;;;17.88;2.50;;;;;;;12.25;79.69;101266.75;4970260;28;20122;-46
2024/03/16 02:10:10;;;;;;;15.15;3.78;;;;;;;12.37;79.47;101266.91;4970376;28;20073;-45
2024/03/16 02:12:36;;;;;;;14.52;2.47;;;;;;;12.80;77.85;101280.50;4969676;28;20043;-47
2024/03/16 02:15:02;;;;;;;13.52;2.42;;;;;;;12.47;78.57;101286.19;4971206;28;20066;-44
2024/03/16 02:17:27;;;;;;;12.50;2.40;;;;;;;12.37;78.78;101282.59;4969854;28;20525;-44
2024/03/16 02:19:53;;;;;;;9.70;2.38;;;;;;;12.56;78.60;101287.16;4972311;28;20049;-48
2024/03/16 02:22:21;;;;;;;12.82;2.45;;;;;;;12.36;79.00;101287.81;4969932;28;20073;-46
2024/03/16 02:24:46;;;;;;;7.97;2.15;;;;;;;12.22;79.26;101289.34;4968615;28;20077;-48
2024/03/16 02:27:12;;;;;;;12.82;2.30;;;;;;;12.22;79.72;101290.22;4969642;28;20124;-45
2024/03/16 02:29:38;;;;;;;11.13;2.08;;;;;;;12.22;79.38;101294.59;4969354;28;20519;-45
2024/03/16 02:32:07;;;;;;;9.02;2.10;;;;;;;12.26;79.98;101299.00;4972269;28;20074;-45
2024/03/16 02:34:34;;;;;;;11.00;2.30;;;;;;;12.32;78.98;101299.94;4971878;28;20050;-44
2024/03/16 02:37:00;;;;;;;9.98;1.90;;;;;;;12.53;78.08;101309.81;4969326;28;20101;-45
2024/03/16 02:39:25;;;;;;;8.02;1.92;;;;;;;12.57;78.11;101308.97;4970075;28;21165;-45
2024/03/16 02:41:52;;;;;;;10.82;1.75;;;;;;;12.56;77.93;101318.56;4969747;28;20174;-45
2024/03/16 02:44:19;;;;;;;8.10;1.52;;;;;;;12.33;78.72;101316.50;4969821;28;20512;-45
2024/03/16 02:46:45;;;;;;;6.82;1.40;;;;;;;12.51;78.42;101325.47;4966974;28;20046;-44
2024/03/16 02:49:10;;;;;;;12.43;1.80;;;;;;;12.49;77.84;101326.34;4969699;28;20038;-44
2024/03/16 02:51:35;;;;;;;13.27;1.50;;;;;;;12.64;77.00;101336.97;4968601;28;20035;-46
2024/03/16 02:54:00;;;;;;;10.35;1.60;;;;;;;12.57;77.05;101330.78;4968278;28;20082;-43
2024/03/16 02:56:26;;;;;;;9.68;1.45;;;;;;;12.64;77.52;101334.34;4968598;28;20035;-45
2024/03/16 02:58:51;;;;;;;5.65;1.50;;;;;;;12.77;77.04;101344.09;4968458;28;20074;-44
2024/03/16 03:01:16;;;;;;;11.05;1.58;;;;;;;12.88;76.15;101346.84;4966410;28;20062;-47
2024/03/16 03:03:42;;;;;;;8.80;1.40;;;;;;;12.50;77.38;101347.25;4967190;28;20129;-45
2024/03/16 03:06:08;;;;;;;11.65;1.50;;;;;;;12.44;77.94;101352.41;4967837;28;20049;-46
2024/03/16 03:08:33;;;;;;;6.22;1.58;;;;;;;12.38;78.25;101356.69;4965992;28;20039;-44
2024/03/16 03:10:59;;;;;;;7.38;1.25;;;;;;;12.12;78.60;101375.50;4968128;28;20885;-45
2024/03/16 03:13:24;;;;;;;9.43;1.52;;;;;;;12.36;77.57;101374.97;4966966;28;20512;-43
2024/03/16 03:15:50;;;;;;;6.60;1.10;;;;;;;12.53;77.45;101364.72;4967263;28;20520;-47
2024/03/16 03:18:15;;;;;;;8.77;1.45;;;;;;;12.58;76.95;101378.75;4968177;28;20046;-47
2024/03/16 03:20:41;;;;;;;9.88;1.70;;;;;;;12.11;78.17;101386.81;4967586;28;20465;-50
2024/03/16 03:23:08;;;;;;;5.45;1.48;;;;;;;12.36;77.84;101381.94;4966051;28;20046;-49
2024/03/16 03:25:34;;;;;;;11.02;1.40;;;;;;;12.28;77.72;101389.66;4966382;28;20526;-45
2024/03/16 03:27:59;;;;;;;7.22;1.50;;;;;;;12.62;76.51;101387.53;4967519;28;20042;-46
2024/03/16 03:30:24;;;;;;;5.05;1.40;;;;;;;12.59;76.39;101397.06;4967555;28;20046;-46
2024/03/16 03:32:50;;;;;;;9.32;1.60;;;;;;;12.55;76.47;101410.09;4967051;28;20560;-45
2024/03/16 03:35:15;;;;;;;11.23;1.52;;;;;;;12.75;75.87;101405.09;4969058;28;20062;-45
2024/03/16 03:37:40;;;;;;;8.13;1.77;;;;;;;12.44;76.58;101409.94;4949664;28;20043;-47
2024/03/16 03:40:06;;;;;;;12.70;1.80;;;;;;;12.16;76.94;101421.72;4965987;28;20389;-46
2024/03/16 03:42:33;;;;;;;9.32;1.35;;;;;;;12.45;76.23;101416.03;4968132;28;20039;-48
2024/03/16 03:45:14;;;;;;;7.72;1.60;;;;;;;12.66;75.92;101421.59;4967673;28;20520;-47
2024/03/16 03:48:02;;;;;;;8.07;1.40;;;;;;;12.73;75.75;101428.66;4966226;28;20604;-44
2024/03/16 03:50:32;;;;;;;8.88;1.60;;;;;;;12.68;75.53;101429.47;4967275;28;20110;-49
2024/03/16 03:53:02;;;;;;;13.10;1.98;;;;;;;12.68;75.36;101432.97;4967335;28;20126;-45
2024/03/16 03:55:28;;;;;;;14.23;1.67;;;;;;;12.47;76.11;101440.47;4967185;28;20565;-49
2024/03/16 03:57:53;;;;;;;12.45;1.77;;;;;;;12.40;76.47;101459.56;4967059;28;20117;-45
2024/03/16 04:00:19;;;;;;;13.57;1.95;;;;;;;12.74;75.58;101456.59;4966114;28;20126;-45
2024/03/16 04:02:45;;;;;;;14.00;1.67;;;;;;;12.72;75.63;101462.63;4964907;28;20038;-47
2024/03/16 04:05:11;;;;;;;11.65;1.77;;;;;;;12.67;75.36;101464.31;4966912;28;20125;-45
2024/03/16 04:07:36;;;;;;;11.40;1.85;;;;;;;12.60;75.86;101469.47;4968283;28;21463;-46
2024/03/16 04:10:02;;;;;;;11.38;1.70;;;;;;;12.27;76.77;101479.41;4967022;28;20043;-44
2024/03/16 04:12:27;;;;;;;16.50;2.10;;;;;;;12.40;75.65;101475.25;4966089;28;20035;-51
2024/03/16 04:14:53;;;;;;;14.48;2.00;;;;;;;12.40;75.94;101491.81;4967212;28;20047;-49
2024/03/16 04:17:18;;;;;;;18.35;2.35;;;;;;;12.15;76.76;101490.53;4967550;28;20054;-46
2024/03/16 04:19:44;;;;;;;14.75;2.65;;;;;;;12.16;76.97;101491.41;4966736;28;20501;-45
2024/03/16 04:22:11;;;;;;;10.98;1.83;;;;;;;12.24;75.54;101492.44;4965444;28;20093;-48
2024/03/16 04:24:36;;;;;;;10.80;1.65;;;;;;;12.63;74.51;101493.88;4966089;28;20046;-46
2024/03/16 04:27:02;;;;;;;11.93;1.35;;;;;;;12.39;73.85;101502.25;4967628;28;20043;-47
2024/03/16 04:29:27;;;;;;;11.48;1.55;;;;;;;12.27;74.15;101508.16;4965964;28;20125;-49
2024/03/16 04:31:52;;;;;;;9.25;1.30;;;;;;;12.10;74.82;101515.72;4965612;28;20493;-45
2024/03/16 04:34:18;;;;;;;9.23;1.13;;;;;;;11.93;74.40;101516.28;4966632;28;20050;-45
2024/03/16 04:36:43;;;;;;;7.82;1.40;;;;;;;12.13;74.53;101522.75;4964732;28;20170;-45
2024/03/16 04:39:08;;;;;;;14.27;1.63;;;;;;;12.08;75.51;101537.44;4966650;28;20126;-44
2024/03/16 04:41:34;;;;;;;7.03;1.10;;;;;;;11.84;76.37;101535.25;4965581;28;20078;-49
2024/03/16 04:43:59;;;;;;;6.00;1.10;;;;;;;11.86;77.16;101544.03;4966050;28;20112;-47
2024/03/16 04:46:28;;;;;;;6.30;1.08;;;;;;;11.59;77.45;101544.31;4966171;28;20105;-46
2024/03/16 04:48:54;;;;;;;6.68;1.20;;;;;;;11.82;77.27;101543.94;4968413;28;20047;-51
2024/03/16 04:51:19;;;;;;;3.05;0.90;;;;;;;11.66;76.84;101555.78;4967608;28;21093;-46
2024/03/16 04:53:44;;;;;;;7.80;0.98;;;;;;;11.89;75.79;101553.66;4965391;28;20078;-47
2024/03/16 04:56:09;;;;;;;3.75;0.93;;;;;;;11.59;76.51;101574.78;4966413;28;20093;-44
2024/03/16 04:58:35;;;;;;;2.25;0.93;;;;;;;11.61;76.88;101583.53;4967046;28;20444;-46
2024/03/16 05:01:00;;;;;;;4.82;1.33;;;;;;;11.67;76.84;101588.88;4966911;28;20031;-46
2024/03/16 05:03:26;;;;;;;3.95;1.08;;;;;;;11.97;75.02;101589.53;4966934;28;20294;-45
2024/03/16 05:05:52;;;;;;;6.45;1.08;;;;;;;11.79;75.52;101599.63;4966232;28;20410;-45
2024/03/16 05:08:17;;;;;;;3.67;0.93;;;;;;;11.71;75.84;101595.97;4967859;28;20074;-46
2024/03/16 05:10:48;;;;;;;6.22;1.50;;;;;;;11.75;75.23;101606.53;4966954;28;20516;-45
2024/03/16 05:13:13;;;;;;;5.68;1.30;;;;;;;11.55;75.42;101613.03;4968572;28;20077;-44
2024/03/16 05:15:39;;;;;;;8.18;1.52;;;;;;;11.99;74.21;101608.72;4967013;28;20039;-49
2024/03/16 05:18:04;;;;;;;11.07;1.42;;;;;;;12.00;73.97;101620.06;4968370;28;20526;-45
2024/03/16 05:20:29;;;;;;;9.57;1.50;;;;;;;11.63;74.85;101634.09;4967492;28;20038;-48
2024/03/16 05:22:55;;;;;;;6.25;1.30;;;;;;;12.07;73.40;101643.75;4968017;28;20055;-46
2024/03/16 05:25:20;;;;;;;6.60;1.60;;;;;;;11.82;74.55;101641.50;4968182;28;20035;-47
2024/03/16 05:27:45;;;;;;;11.30;1.48;;;;;;;11.76;75.07;101650.09;4966866;28;20452;-47
2024/03/16 05:30:11;;;;;;;8.60;1.50;;;;;;;11.99;74.33;101647.03;4968261;28;20050;-44
2024/03/16 05:32:36;;;;;;;13.48;1.50;;;;;;;12.15;73.41;101655.22;4967099;28;20050;-46
2024/03/16 05:35:03;;;;;;;7.47;1.55;;;;;;;12.20;73.47;101663.13;4968705;28;20126;-46
2024/03/16 05:37:28;;;;;;;9.60;1.90;;;;;;;11.98;73.58;101663.56;4966715;28;20117;-50
2024/03/16 05:39:53;;;;;;;11.73;2.00;;;;;;;12.02;73.38;101666.28;4966877;28;20043;-45
2024/03/16 05:42:18;;;;;;;9.75;1.70;;;;;;;12.13;72.30;101669.13;4966312;28;20453;-47
2024/03/16 05:44:44;;;;;;;12.90;1.88;;;;;;;12.14;72.96;101678.69;4966099;28;20142;-49
2024/03/16 05:47:09;;;;;;;14.13;2.00;;;;;;;12.15;72.01;101689.19;4965802;28;20050;-47
2024/03/16 05:49:36;;;;;;;8.32;1.67;;;;;;;12.25;71.69;101694.63;4966693;28;20051;-47
2024/03/16 05:52:01;;;;;;;8.27;1.80;;;;;;;12.27;71.56;101704.22;4966984;28;20137;-48
2024/03/16 05:54:31;;;;;;;8.10;1.80;;;;;;;12.39;71.12;101704.47;4969369;28;20125;-45
2024/03/16 05:56:56;;;;;;;10.57;1.60;;;;;;;12.38;70.94;101718.41;4969498;28;21024;-45
2024/03/16 05:59:21;;;;;;;9.77;1.70;;;;;;;12.47;70.63;101717.69;4969429;28;20047;-47
2024/03/16 06:01:46;;;;;;;8.93;1.73;;;;;;;12.29;70.11;101726.06;4969076;28;20097;-48
2024/03/16 06:04:12;;;;;;;8.82;1.70;;;;;;;12.02;69.58;101743.78;4969247;28;20063;-44
2024/03/16 06:06:37;;;;;;;7.85;1.50;;;;;;;12.06;70.04;101748.25;4968946;28;20717;-48
2024/03/16 06:09:02;;;;;;;10.02;1.60;;;;;;;11.90;69.86;101756.59;4969486;28;20053;-46
2024/03/16 06:11:28;;;;;;;5.60;1.23;;;;;;;11.52;71.39;101761.81;4969419;28;20098;-47
2024/03/16 06:13:53;;;;;;;6.93;1.23;;;;;;;11.56;71.00;101763.66;4968352;28;20043;-47
2024/03/16 06:16:21;;;;;;;9.30;1.20;;;;;;;11.98;69.31;101773.34;4968915;28;20543;-46
2024/03/16 06:18:47;;;;;;;5.20;1.40;;;;;;;11.89;69.11;101778.38;4968049;28;20082;-50
2024/03/16 06:21:12;;;;;;;8.70;1.33;;;;;;;11.82;69.19;101782.56;4970419;28;20122;-43
2024/03/16 06:23:38;;;;;;;7.20;1.25;;;;;;;11.57;69.20;101796.75;4969764;28;20524;-50
2024/03/16 06:26:03;;;;;;;8.15;1.27;;;;;;;12.06;67.86;101801.41;4971225;28;20054;-45
2024/03/16 06:28:29;;;;;;;5.47;1.20;;;;;;;11.07;74.42;101818.97;4974205;28;20039;-45
2024/03/16 06:31:07;;;;;;;7.82;1.20;;;;;;;11.38;74.00;101816.31;4969820;28;20046;-46
2024/03/16 06:33:33;;;;;;;9.40;1.75;;;;;;;11.37;74.75;101809.31;4968483;28;20141;-47
2024/03/16 06:35:58;;;;;;;5.90;1.13;;;;;;;11.24;76.60;101827.22;4972087;28;20170;-45
2024/03/16 06:38:23;;;;;;;6.88;1.50;;;;;;;11.36;76.33;101819.72;4974956;28;20166;-47
2024/03/16 06:40:52;;;;;;;6.30;1.25;;;;;;;10.98;77.46;101829.16;4969654;28;20161;-48
2024/03/16 06:43:17;;;;;;;7.72;1.73;;;;;;;11.54;76.02;101837.56;4983838;28;20051;-48
2024/03/16 06:45:42;;;;;;;9.95;1.75;;;;;;;11.26;77.33;101833.38;4968919;28;20054;-45
2024/03/16 06:48:07;;;;;;;9.90;1.35;;;;;;;11.13;77.25;101837.41;4969053;28;20378;-46
2024/03/16 06:50:35;;;;;;;6.07;1.10;;;;;;;11.69;75.91;101845.78;4969583;28;20077;-50
2024/03/16 06:53:00;;;;;;;8.05;1.23;;;;;;;11.33;75.17;101856.19;4972455;28;20042;-45
2024/03/16 06:55:26;;;;;;;5.72;1.10;;;;;;;12.11;73.27;101861.63;4968563;28;20553;-45
2024/03/16 06:57:51;;;;;;;5.75;1.10;;;;;;;11.50;73.96;101867.06;4968874;28;20504;-44
2024/03/16 07:00:17;;;;;;;6.70;1.17;;;;;;;11.62;74.34;101872.59;4968955;28;20038;-49
2024/03/16 07:02:42;;;;;;;8.20;1.30;;;;;;;11.76;73.88;101881.72;4969736;28;20049;-46
2024/03/16 07:05:09;;;;;;;7.20;1.48;;;;;;;11.52;73.85;101875.84;4969304;28;20034;-48
2024/03/16 07:07:34;;;;;;;5.32;1.30;;;;;;;11.64;73.06;101878.75;4967905;28;20046;-48
2024/03/16 07:09:59;;;;;;;9.18;1.40;;;;;;;11.86;72.69;101888.03;4968495;28;20043;-51
2024/03/16 07:12:25;;;;;;;9.85;1.27;;;;;;;12.00;71.36;101890.13;4968317;28;20130;-45
2024/03/16 07:14:50;;;;;;;10.02;1.30;;;;;;;12.09;70.36;101892.94;4967502;28;20053;-45
2024/03/16 07:17:15;;;;;;;8.65;1.42;;;;;;;12.45;68.97;101889.38;4966883;28;20054;-47
2024/03/16 07:19:41;;;;;;;7.38;1.10;;;;;;;12.31;68.50;101896.06;4968107;28;20054;-44
2024/03/16 07:22:07;;;;;;;7.18;1.40;;;;;;;12.35;68.42;101901.41;4968054;28;20138;-45
2024/03/16 07:24:33;;;;;;;4.93;1.08;;;;;;;12.55;68.05;101910.56;4966897;28;20129;-47
2024/03/16 07:26:58;;;;;;;8.00;1.50;;;;;;;12.77;66.90;101916.25;4967752;28;20173;-49
2024/03/16 07:29:23;;;;;;;10.68;1.38;;;;;;;12.46;67.24;101914.69;4966391;28;20316;-46
2024/03/16 07:31:49;;;;;;;7.72;1.45;;;;;;;12.18;67.93;101923.66;4967680;28;20050;-47
2024/03/16 07:34:15;;;;;;;6.72;1.27;;;;;;;12.29;66.24;101939.59;4967570;28;20502;-45
2024/03/16 07:36:41;;;;;;;11.13;1.80;;;;;;;12.49;65.26;101939.22;4967276;28;20082;-46
2024/03/16 07:39:08;;;;;;;10.07;1.38;;;;;;;12.31;65.75;101941.41;4967661;28;20038;-46
2024/03/16 07:41:37;;;;;;;6.50;1.38;;;;;;;12.68;64.45;101950.97;4966879;28;20068;-46
2024/03/16 07:44:02;;;;;;;8.35;1.55;;;;;;;12.69;63.24;101951.81;4967782;28;20092;-47
2024/03/16 07:46:28;;;;;;;8.60;1.60;;;;;;;12.76;63.67;101961.56;4966758;28;20133;-46
2024/03/16 07:48:56;;;;;;;8.18;1.30;;;;;;;12.54;64.08;101961.13;4967711;28;20487;-48
2024/03/16 07:51:26;;;;;;;7.78;1.20;;;;;;;12.42;62.34;101962.56;4967345;28;20050;-51
2024/03/16 07:53:52;;;;;;;6.07;1.40;;;;;;;12.75;62.04;101960.69;4966631;28;20042;-46
2024/03/16 07:56:18;;;;;;;6.35;1.10;;;;;;;12.78;61.54;101972.97;4967233;28;20529;-47
2024/03/16 07:58:43;;;;;;;8.13;1.30;;;;;;;12.83;61.33;101963.47;4967221;28;20152;-46
2024/03/16 08:01:10;;;;;;;6.30;1.00;;;;;;;13.05;61.20;101970.94;4967695;28;20170;-48
2024/03/16 08:03:35;;;;;;;7.28;1.25;;;;;;;12.49;60.12;101972.31;4964293;28;20043;-44
2024/03/16 08:06:05;;;;;;;6.47;1.13;;;;;;;12.74;56.57;101974.66;4966989;28;20036;-48
2024/03/16 08:08:30;;;;;;;3.50;0.82;;;;;;;12.50;55.49;101979.34;4966796;28;20074;-49
2024/03/16 08:10:55;;;;;;;5.43;1.15;;;;;;;12.95;55.57;101985.56;4967186;28;20046;-45
2024/03/16 08:13:21;;;;;;;6.25;0.95;;;;;;;13.42;54.73;101990.91;4967007;28;20116;-50
2024/03/16 08:15:46;;;;;;;2.35;0.80;;;;;;;13.27;54.70;101993.25;4966846;28;20413;-46
2024/03/16 08:18:12;;;;;;;5.90;1.00;;;;;;;13.87;53.04;101985.66;4967200;28;20310;-48
2024/03/16 08:20:37;;;;;;;4.18;1.15;;;;;;;13.67;53.46;101987.91;4965502;28;20050;-48
2024/03/16 08:23:03;;;;;;;4.90;1.17;;;;;;;13.07;54.50;101991.91;4966815;28;20961;-50
2024/03/16 08:25:29;;;;;;;6.03;1.02;;;;;;;13.56;54.09;101992.06;4966920;28;20042;-49
2024/03/16 08:27:56;;;;;;;4.88;1.17;;;;;;;13.24;55.85;102007.13;4967521;28;20082;-47
2024/03/16 08:30:21;;;;;;;5.60;1.10;;;;;;;13.44;54.04;102007.53;4967244;28;20046;-49
2024/03/16 08:32:46;;;;;;;4.80;1.17;;;;;;;13.76;53.02;102001.19;4966102;28;20100;-44
2024/03/16 08:35:11;;;;;;;3.45;0.90;;;;;;;14.39;53.37;102007.53;4967070;28;20524;-51
2024/03/16 08:37:37;;;;;;;5.63;1.60;;;;;;;13.37;56.02;102022.25;4967083;28;20039;-48
2024/03/16 08:40:11;;;;;;;4.90;1.23;;;;;;;13.66;55.22;102027.22;4967132;28;20045;-47
2024/03/16 08:42:38;;;;;;;6.28;1.00;;;;;;;13.63;55.92;102037.63;4965736;28;20074;-47
2024/03/16 08:45:04;;;;;;;6.18;0.90;;;;;;;13.45;56.12;102038.13;4967243;28;20413;-46
2024/03/16 08:47:29;;;;;;;5.18;1.00;;;;;;;13.55;55.96;102033.94;4966304;28;20066;-46
2024/03/16 08:49:55;;;;;;;4.72;1.08;;;;;;;13.53;53.98;102041.81;4967293;28;20759;-46
2024/03/16 08:52:22;;;;;;;4.85;0.88;;;;;;;13.48;53.43;102043.41;4967147;28;20641;-48
2024/03/16 08:54:47;;;;;;;4.82;0.95;;;;;;;13.41;51.46;102054.66;4966476;28;20035;-45
2024/03/16 08:57:13;;;;;;;3.92;1.00;;;;;;;13.16;50.30;102055.88;4966283;28;20485;-47
2024/03/16 08:59:38;;;;;;;5.05;1.08;;;;;;;14.20;48.68;102045.66;4965937;28;20062;-51
2024/03/16 09:02:03;;;;;;;4.45;0.82;;;;;;;13.56;49.10;102061.91;4966408;28;20047;-48
2024/03/16 09:04:29;;;;;;;3.45;0.70;;;;;;;13.35;50.20;102071.13;4966038;28;20057;-49
2024/03/16 09:06:55;;;;;;;5.57;0.80;;;;;;;13.82;46.61;102076.44;4967219;28;20073;-45
2024/03/16 09:09:21;;;;;;;3.50;0.70;;;;;;;13.83;47.51;102075.59;4966392;28;20057;-48
2024/03/16 09:11:47;;;;;;;6.50;1.42;;;;;;;13.95;48.66;102090.66;4965918;28;20047;-52
2024/03/16 09:14:12;;;;;;;2.85;0.80;;;;;;;13.83;47.92;102091.31;4966565;28;20053;-46
2024/03/16 09:16:40;;;;;;;3.65;0.90;;;;;;;13.36;49.13;102098.19;4965683;28;20064;-44
2024/03/16 09:19:09;;;;;;;2.75;0.88;;;;;;;14.22;47.13;102097.28;4967104;28;20077;-46
2024/03/16 09:21:34;;;;;;;2.95;0.88;;;;;;;14.02;46.80;102103.03;4965890;28;20464;-47
2024/03/16 09:23:59;;;;;;;8.05;0.95;;;;;;;14.44;46.11;102100.31;4965534;28;20039;-46
2024/03/16 09:26:25;;;;;;;4.32;0.90;;;;;;;13.65;47.24;102111.91;4966237;28;20050;-45
2024/03/16 09:28:51;;;;;;;4.20;0.93;;;;;;;13.66;48.07;102111.91;4970613;28;20039;-45
2024/03/16 09:31:16;;;;;;;4.10;0.98;;;;;;;13.66;48.31;102121.53;4972849;28;20515;-44
2024/03/16 09:33:42;;;;;;;5.45;0.95;;;;;;;14.23;46.61;102116.53;4970396;28;20046;-46
2024/03/16 09:36:07;;;;;;;7.18;1.02;;;;;;;14.11;47.46;102121.53;4969513;28;20053;-45
2024/03/16 09:38:32;;;;;;;2.28;0.77;;;;;;;14.18;48.09;102129.56;4969410;28;20453;-47
2024/03/16 09:40:59;;;;;;;5.45;1.00;;;;;;;13.79;50.65;102132.28;4969615;28;20038;-49
2024/03/16 09:43:25;;;;;;;7.10;1.00;;;;;;;13.77;51.48;102138.38;4970294;28;20035;-49
2024/03/16 09:45:53;;;;;;;6.35;1.00;;;;;;;13.76;51.18;102142.72;4969587;28;20066;-50
2024/03/16 09:48:19;;;;;;;6.53;1.10;;;;;;;14.00;50.27;102142.31;4970588;28;20050;-48
2024/03/16 09:50:47;;;;;;;6.78;1.15;;;;;;;14.20;50.73;102147.97;4968964;28;20042;-50
2024/03/16 09:53:26;;;;;;;8.30;1.35;;;;;;;14.04;49.63;102157.25;4969301;28;20134;-47
2024/03/16 09:55:51;;;;;;;4.43;1.30;;;;;;;14.06;51.52;102166.03;4969331;28;20042;-44
2024/03/16 09:58:20;;;;;;;7.82;1.33;;;;;;;14.10;49.41;102169.59;4969546;28;20045;-50
2024/03/16 10:00:46;;;;;;;6.03;0.95;;;;;;;14.44;47.38;102163.28;4969658;28;20038;-45
2024/03/16 10:03:15;;;;;;;3.72;0.90;;;;;;;14.48;47.43;102163.38;4968607;28;20042;-45
2024/03/16 10:05:41;;;;;;;6.70;1.02;;;;;;;14.58;46.85;102167.03;4968527;28;20061;-47
2024/03/16 10:08:06;;;;;;;7.00;0.98;;;;;;;14.41;47.06;102174.59;4969547;28;20047;-50
2024/03/16 10:10:32;;;;;;;5.88;1.00;;;;;;;14.87;45.53;102167.53;4968403;28;20050;-47
2024/03/16 10:13:06;;;;;;;5.45;1.10;;;;;;;14.80;45.65;102171.81;4968953;28;20444;-48
2024/03/16 10:15:40;;;;;;;4.82;1.00;;;;;;;14.71;45.85;102186.50;4968464;28;20039;-50
2024/03/16 10:18:14;;;;;;;9.52;1.10;;;;;;;14.56;47.35;102201.16;4969877;28;20517;-47
2024/03/16 10:20:39;;;;;;;5.93;0.90;;;;;;;14.18;47.68;102202.13;4968286;28;20038;-45
2024/03/16 10:23:10;;;;;;;4.80;0.93;;;;;;;14.09;44.14;102204.53;4968821;28;20035;-46
2024/03/16 10:25:37;;;;;;;3.45;1.08;;;;;;;14.23;45.42;102208.31;4968439;28;20038;-48
2024/03/16 10:28:07;;;;;;;6.07;0.95;;;;;;;14.69;45.39;102206.59;4968963;28;20090;-48
2024/03/16 10:30:34;;;;;;;5.65;1.15;;;;;;;15.03;46.14;102212.44;4969977;28;20133;-46
2024/03/16 10:32:59;;;;;;;6.95;1.13;;;;;;;15.33;44.10;102214.66;4970403;28;20061;-48
2024/03/16 10:35:26;;;;;;;5.30;1.08;;;;;;;14.69;46.64;102223.25;4970431;28;20039;-46
2024/03/16 10:37:52;;;;;;;2.85;0.93;;;;;;;14.56;46.29;102218.63;4968693;28;20043;-46
2024/03/16 10:40:24;;;;;;;6.53;1.10;;;;;;;14.41;46.57;102219.22;4968226;28;20150;-44
2024/03/16 10:42:50;;;;;;;8.32;1.20;;;;;;;14.54;47.49;102221.22;4968123;28;20525;-45
2024/03/16 10:45:20;;;;;;;8.00;1.35;;;;;;;14.67;48.35;102230.19;4968927;28;20030;-47
2024/03/16 10:47:52;;;;;;;5.70;1.38;;;;;;;14.37;50.50;102238.38;4966705;28;20039;-47
2024/03/16 10:50:20;;;;;;;6.53;1.13;;;;;;;14.45;50.69;102228.94;4970356;28;20121;-45
2024/03/16 10:52:48;;;;;;;8.65;1.30;;;;;;;14.40;49.71;102241.06;4969660;28;20065;-46
2024/03/16 10:55:15;;;;;;;7.25;1.38;;;;;;;14.14;49.71;102247.50;4970799;28;20039;-51
2024/03/16 10:57:46;;;;;;;6.35;1.23;;;;;;;13.94;50.98;102240.94;4969483;28;20050;-46
2024/03/16 11:00:35;;;;;;;9.13;1.35;;;;;;;13.59;50.80;102253.28;4969323;28;20062;-51
2024/03/16 11:03:29;;;;;;;7.88;1.17;;;;;;;14.55;48.88;102248.34;4966889;28;20505;-46
2024/03/16 11:06:11;;;;;;;10.90;1.27;;;;;;;14.27;50.22;102252.16;4968047;28;20045;-48
2024/03/16 11:08:39;;;;;;;10.32;1.52;;;;;;;14.23;49.74;102261.69;4967684;28;20039;-48
2024/03/16 11:11:05;;;;;;;6.55;1.08;;;;;;;14.64;48.16;102258.16;4968931;28;20066;-46
2024/03/16 11:13:30;;;;;;;6.82;1.15;;;;;;;14.41;48.06;102255.94;4970060;28;20066;-47
2024/03/16 11:15:57;;;;;;;6.57;1.40;;;;;;;14.13;47.41;102258.84;4969358;28;20066;-46
2024/03/16 11:18:22;;;;;;;7.30;1.10;;;;;;;14.02;47.14;102260.34;4969649;28;20422;-48